Sedgwick, Colorado
Current Conditions -  °F | °C
As of 3:53 AM on Wednesday 26 Nov 2014 (Local Time) from KSNY Reporting Station
Overcast Overcast  
Wind Chill: 15°   Ceiling: 9000
Heat Index: 28°   Visibility: 10mi
Dew Point: 24°   Wind: 18mph
Humidity: 85%   Direction: 340°NNW
Pressure: 30.11"   Gusts: NA
Location:  40.94°N, 102.53°W
Report Text: KSNY 261053Z AUTO 34016KT 10SM OVC090 M02/M04 A3011 RMK AO2 PK WND 35026/1005 SLP214 T10221044
Loading
Personal Weather Stations






























Interactive Weather Map New forecast layout! Learn more

10-Day Weather Forecast

Advertisements
Track Severe Weather on mobile